Andover, New Jersey
Current Conditions -  °F | °C
As of 10:53 AM on Thursday 30 Oct 2014 (Local Time) from KFWN Reporting Station
Broken Clouds Broken Clouds  
Wind Chill: 52°   Ceiling: 3100
Heat Index: 52°   Visibility: 10mi
Dew Point: 41°   Wind: 8mph
Humidity: 66%   Direction: 350°N
Pressure: 30.02"   Gusts: NA
Location:  40.99°N, 74.74°W
Report Text: KFWN 301453Z AUTO 35007KT 10SM FEW027 BKN031 11/05 A3002 RMK AO2 SLP165 T01110050 51005
Loading
Personal Weather Stations






























Interactive Weather Map
Tropical Storm Tracking
New forecast layout! Learn more

10-Day Weather Forecast

Advertisements
Track Severe Weather on mobile